Time;durP1;ratioP1;P1;durP2;ratioP2;P2;SDS_P1;SDS_P2;PMS_P1;PMS_P2;Temp;Humidity;BMP_temperature;BMP_pressure;BME280_temperature;BME280_humidity;BME280_pressure;Samples;Min_cycle;Max_cycle;Signal;HPM_P1;HPM_P2
2021/06/21 00:00:09;;;;;;;7.20;6.70;;;23.60;97.50;;;;;;5119569;28;20409;-53
2021/06/21 00:02:36;;;;;;;7.67;6.93;;;23.50;97.60;;;;;;5116612;28;20538;-54
2021/06/21 00:05:03;;;;;;;7.43;6.93;;;23.50;97.70;;;;;;5106107;28;20859;-55
2021/06/21 00:07:30;;;;;;;11.40;6.80;;;23.50;97.90;;;;;;5104335;28;20410;-55
2021/06/21 00:09:57;;;;;;;7.70;7.13;;;23.40;97.90;;;;;;5112298;28;20438;-57
2021/06/21 00:12:25;;;;;;;7.27;6.80;;;23.40;98.10;;;;;;5111316;28;20476;-52
2021/06/21 00:14:52;;;;;;;7.37;6.77;;;23.40;98.10;;;;;;5118028;28;20764;-57
2021/06/21 00:17:19;;;;;;;6.87;6.40;;;23.30;98.20;;;;;;5117893;28;20439;-53
2021/06/21 00:19:46;;;;;;;7.93;7.13;;;23.30;98.40;;;;;;5109698;28;20485;-58
2021/06/21 00:22:14;;;;;;;6.63;6.03;;;23.30;98.40;;;;;;5115391;28;20643;-55
2021/06/21 00:24:43;;;;;;;7.00;6.60;;;23.20;98.50;;;;;;5106034;28;20454;-56
2021/06/21 00:27:12;;;;;;;7.63;7.00;;;23.20;98.70;;;;;;5115537;28;20417;-54
2021/06/21 00:29:39;;;;;;;6.73;6.07;;;23.10;98.80;;;;;;5112467;28;20742;-58
2021/06/21 00:32:06;;;;;;;7.50;6.90;;;23.10;98.90;;;;;;5109962;28;20769;-52
2021/06/21 00:34:34;;;;;;;7.60;6.90;;;23.10;98.90;;;;;;5111110;28;20460;-55
2021/06/21 00:37:01;;;;;;;9.53;6.10;;;23.10;98.90;;;;;;5117327;28;20448;-57
2021/06/21 00:39:28;;;;;;;6.80;6.30;;;23.00;99.00;;;;;;5118609;28;20478;-52
2021/06/21 00:41:56;;;;;;;8.17;7.57;;;23.00;99.20;;;;;;5117922;28;20462;-57
2021/06/21 00:44:23;;;;;;;8.70;7.90;;;23.00;99.30;;;;;;5115807;28;20480;-55
2021/06/21 00:46:50;;;;;;;7.37;6.73;;;23.00;99.30;;;;;;5106064;28;20457;-56
2021/06/21 00:49:17;;;;;;;7.40;6.80;;;23.00;99.30;;;;;;5100235;28;20424;-54
2021/06/21 00:51:44;;;;;;;7.23;6.70;;;23.10;99.40;;;;;;5108107;28;20418;-54
2021/06/21 00:54:11;;;;;;;6.50;5.90;;;22.90;99.50;;;;;;5098950;28;20458;-53
2021/06/21 00:56:39;;;;;;;7.83;7.03;;;22.90;99.50;;;;;;5109380;27;20447;-52
2021/06/21 00:59:06;;;;;;;6.90;6.30;;;22.90;99.60;;;;;;5110485;28;20424;-54
2021/06/21 01:01:33;;;;;;;7.57;6.97;;;22.90;99.60;;;;;;5097984;28;20439;-54
2021/06/21 01:04:01;;;;;;;7.07;6.47;;;22.90;99.70;;;;;;5106472;27;20671;-56
2021/06/21 01:06:29;;;;;;;7.80;7.20;;;22.20;99.70;;;;;;5100477;28;20482;-51
2021/06/21 01:08:57;;;;;;;7.27;6.77;;;22.70;99.90;;;;;;5096824;28;20410;-56
2021/06/21 01:11:38;;;;;;;9.20;7.10;;;22.70;99.90;;;;;;5103896;28;20438;-54
2021/06/21 01:14:33;;;;;;;7.47;6.87;;;22.60;99.90;;;;;;5112703;28;20634;-60
2021/06/21 01:17:13;;;;;;;10.13;7.47;;;22.50;99.90;;;;;;5096633;28;20451;-55
2021/06/21 01:19:58;;;;;;;6.90;6.40;;;22.80;99.90;;;;;;5106438;28;20507;-56
2021/06/21 01:22:31;;;;;;;7.70;6.90;;;22.20;99.90;;;;;;5117252;28;20497;-56
2021/06/21 01:25:06;;;;;;;6.97;6.40;;;22.50;99.90;;;;;;5117266;28;20408;-55
2021/06/21 01:28:15;;;;;;;7.63;7.03;;;22.40;99.90;;;;;;5125517;27;20434;-55
2021/06/21 01:31:07;;;;;;;6.77;6.27;;;22.30;99.90;;;;;;5074341;28;20477;-57
2021/06/21 01:33:36;;;;;;;7.27;6.67;;;22.30;99.90;;;;;;5103961;28;20460;-55
2021/06/21 01:36:07;;;;;;;7.63;7.03;;;22.30;99.90;;;;;;5117039;28;20462;-52
2021/06/21 01:38:43;;;;;;;6.70;6.20;;;22.20;99.90;;;;;;5116992;28;20613;-57
2021/06/21 01:41:15;;;;;;;7.43;6.83;;;22.30;99.90;;;;;;5116678;28;20463;-57
2021/06/21 01:43:44;;;;;;;8.30;7.33;;;22.20;99.90;;;;;;5103417;28;20486;-54
2021/06/21 01:46:16;;;;;;;6.97;6.37;;;22.30;99.90;;;;;;5116911;28;20562;-57
2021/06/21 01:48:50;;;;;;;7.23;6.63;;;22.20;99.90;;;;;;5115351;28;20742;-54
2021/06/21 01:51:18;;;;;;;7.37;6.87;;;22.20;99.90;;;;;;5117107;28;20872;-55
2021/06/21 01:53:48;;;;;;;6.67;6.20;;;22.10;99.90;;;;;;5115754;28;20417;-58
2021/06/21 01:56:20;;;;;;;7.20;6.70;;;22.20;99.90;;;;;;5109591;28;20440;-55
2021/06/21 01:58:50;;;;;;;7.00;6.40;;;22.30;99.90;;;;;;5115282;28;20416;-55
2021/06/21 02:01:18;;;;;;;7.10;6.50;;;22.30;99.90;;;;;;5116479;28;20415;-54
2021/06/21 02:03:50;;;;;;;8.73;7.93;;;22.20;99.90;;;;;;5115996;28;20483;-52
2021/06/21 02:06:19;;;;;;;7.43;6.80;;;22.00;99.90;;;;;;5116988;28;20487;-55
2021/06/21 02:08:49;;;;;;;7.70;6.43;;;21.90;99.90;;;;;;5115723;28;20477;-56
2021/06/21 02:11:17;;;;;;;7.83;7.23;;;22.00;99.90;;;;;;5107390;28;20493;-56
2021/06/21 02:13:45;;;;;;;6.67;5.93;;;22.00;99.90;;;;;;5110119;28;20745;-57
2021/06/21 02:16:14;;;;;;;8.33;7.33;;;22.00;99.90;;;;;;5117055;28;20448;-55
2021/06/21 02:18:42;;;;;;;7.77;7.07;;;21.90;99.90;;;;;;5116378;28;20435;-58
2021/06/21 02:21:11;;;;;;;7.87;7.17;;;21.90;99.90;;;;;;5108361;28;20451;-57
2021/06/21 02:23:40;;;;;;;7.10;6.50;;;21.70;99.90;;;;;;5107502;28;20431;-57
2021/06/21 02:26:08;;;;;;;7.20;6.60;;;21.70;99.90;;;;;;5113945;28;20702;-58
2021/06/21 02:28:36;;;;;;;8.17;7.40;;;21.70;99.90;;;;;;5119722;28;20412;-55
2021/06/21 02:31:08;;;;;;;6.90;6.27;;;22.40;99.90;;;;;;5103113;28;20416;-55
2021/06/21 02:33:35;;;;;;;6.97;6.47;;;21.60;99.90;;;;;;5103701;28;20467;-55
2021/06/21 02:36:04;;;;;;;6.97;6.37;;;21.60;99.90;;;;;;5112124;28;20422;-54
2021/06/21 02:38:31;;;;;;;7.50;6.80;;;21.60;99.90;;;;;;5116500;28;20427;-55
2021/06/21 02:40:58;;;;;;;10.67;7.13;;;21.60;99.90;;;;;;5110196;28;20622;-56
2021/06/21 02:43:25;;;;;;;7.97;7.30;;;21.60;99.90;;;;;;5109640;28;20608;-54
2021/06/21 02:45:52;;;;;;;7.57;6.97;;;21.60;99.90;;;;;;5118400;28;20511;-50
2021/06/21 02:48:20;;;;;;;8.60;7.90;;;21.60;99.90;;;;;;5107838;28;20440;-54
2021/06/21 02:50:48;;;;;;;7.80;7.10;;;21.50;99.90;;;;;;5110256;27;20422;-55
2021/06/21 02:53:26;;;;;;;6.90;6.37;;;21.60;99.90;;;;;;5108738;28;20465;-54
2021/06/21 02:56:18;;;;;;;8.10;7.30;;;21.60;99.90;;;;;;5112578;28;20602;-55
2021/06/21 02:58:46;;;;;;;7.00;5.80;;;21.50;99.90;;;;;;5101355;28;20450;-57
2021/06/21 03:01:15;;;;;;;7.40;6.90;;;21.40;99.90;;;;;;5106142;28;20414;-54
2021/06/21 03:03:48;;;;;;;7.63;7.03;;;21.40;99.90;;;;;;5119809;28;20418;-52
2021/06/21 03:06:17;;;;;;;7.17;6.60;;;21.40;99.90;;;;;;5116597;28;20480;-51
2021/06/21 03:08:45;;;;;;;6.90;6.30;;;21.60;99.90;;;;;;5118126;28;20749;-55
2021/06/21 03:11:17;;;;;;;8.47;7.30;;;21.60;99.90;;;;;;5112134;28;20416;-56
2021/06/21 03:13:51;;;;;;;7.27;6.60;;;21.70;99.90;;;;;;5112560;28;20444;-57
2021/06/21 03:16:19;;;;;;;8.07;7.57;;;21.90;99.90;;;;;;5118705;28;20465;-55
2021/06/21 03:18:49;;;;;;;9.23;8.40;;;22.00;99.90;;;;;;5115311;28;20665;-56
2021/06/21 03:21:18;;;;;;;7.70;7.10;;;21.90;99.90;;;;;;5114106;28;20449;-55
2021/06/21 03:23:51;;;;;;;8.00;7.37;;;21.80;99.90;;;;;;5108692;28;20552;-56
2021/06/21 03:26:24;;;;;;;8.67;7.97;;;22.00;99.90;;;;;;5118886;28;20473;-54
2021/06/21 03:28:51;;;;;;;14.23;12.73;;;22.20;99.90;;;;;;5116263;27;20417;-55
2021/06/21 03:31:20;;;;;;;7.60;7.00;;;22.80;99.90;;;;;;5117540;28;20532;-55
2021/06/21 03:33:48;;;;;;;8.13;7.47;;;22.80;99.90;;;;;;5118672;28;20491;-54
2021/06/21 03:36:15;;;;;;;8.10;7.47;;;23.00;99.90;;;;;;5117302;28;20506;-55
2021/06/21 03:38:43;;;;;;;8.53;7.73;;;23.20;99.90;;;;;;5118095;28;20415;-53
2021/06/21 03:41:10;;;;;;;8.57;7.90;;;23.50;99.90;;;;;;5117976;28;20470;-54
2021/06/21 03:43:37;;;;;;;9.30;8.60;;;23.70;99.90;;;;;;5118101;28;20417;-50
2021/06/21 03:46:06;;;;;;;9.40;8.70;;;23.70;99.90;;;;;;5118113;28;20490;-53
2021/06/21 03:48:36;;;;;;;9.17;8.47;;;24.00;99.50;;;;;;5111411;28;20425;-52
2021/06/21 03:51:05;;;;;;;8.57;7.70;;;24.20;99.00;;;;;;5098717;28;20481;-54
2021/06/21 03:53:32;;;;;;;9.83;8.83;;;24.50;98.60;;;;;;5117848;28;20470;-55
2021/06/21 03:55:59;;;;;;;9.60;8.90;;;24.80;98.00;;;;;;5114207;28;20412;-53
2021/06/21 03:58:26;;;;;;;9.53;8.70;;;24.70;98.20;;;;;;5118206;28;20588;-54
2021/06/21 04:00:53;;;;;;;9.57;8.87;;;24.80;98.10;;;;;;5108789;27;20439;-55
2021/06/21 04:03:20;;;;;;;13.37;9.43;;;24.70;98.20;;;;;;5107451;28;20817;-55
2021/06/21 04:05:48;;;;;;;9.30;8.73;;;24.60;98.30;;;;;;5116786;28;20746;-53
2021/06/21 04:08:16;;;;;;;9.17;8.57;;;24.50;98.40;;;;;;5113573;28;20497;-51
2021/06/21 04:10:45;;;;;;;11.60;10.50;;;24.50;98.70;;;;;;5108385;27;20446;-51
2021/06/21 04:13:14;;;;;;;11.33;10.53;;;24.50;98.50;;;;;;5108064;28;20412;-56
2021/06/21 04:15:42;;;;;;;10.27;9.67;;;25.20;99.10;;;;;;5118040;28;20428;-53
2021/06/21 04:18:15;;;;;;;9.43;8.73;;;24.20;99.30;;;;;;5110302;28;20448;-55
2021/06/21 04:20:44;;;;;;;10.40;9.70;;;24.10;99.50;;;;;;5113205;28;20417;-56
2021/06/21 04:23:13;;;;;;;9.63;8.87;;;24.20;99.30;;;;;;5118858;28;20462;-55
2021/06/21 04:25:40;;;;;;;8.80;8.20;;;24.50;99.00;;;;;;5118590;28;20653;-54
2021/06/21 04:28:08;;;;;;;10.20;9.40;;;24.50;98.60;;;;;;5123411;27;20409;-56
2021/06/21 04:30:36;;;;;;;11.40;10.50;;;24.50;98.80;;;;;;5118732;28;20421;-55
2021/06/21 04:33:03;;;;;;;11.10;10.20;;;24.50;98.80;;;;;;5116969;28;20491;-55
2021/06/21 04:35:31;;;;;;;10.43;9.73;;;24.40;99.10;;;;;;5117562;28;20450;-55
2021/06/21 04:37:58;;;;;;;12.10;11.20;;;24.40;99.10;;;;;;5114816;28;20485;-57
2021/06/21 04:40:31;;;;;;;10.67;9.97;;;24.30;99.20;;;;;;5106857;28;20421;-54
2021/06/21 04:42:59;;;;;;;11.57;10.47;;;24.40;99.20;;;;;;5114856;28;20518;-58
2021/06/21 04:45:26;;;;;;;13.30;12.03;;;24.40;99.10;;;;;;5118622;28;20417;-56
2021/06/21 04:47:55;;;;;;;11.47;10.60;;;24.40;99.00;;;;;;5114166;28;20468;-54
2021/06/21 04:50:22;;;;;;;10.90;10.10;;;24.40;99.20;;;;;;5116719;28;20650;-52
2021/06/21 04:52:50;;;;;;;12.33;11.43;;;25.10;99.50;;;;;;5116293;27;20417;-55
2021/06/21 04:55:18;;;;;;;10.63;9.83;;;24.50;99.10;;;;;;5118160;28;20421;-55
2021/06/21 04:57:47;;;;;;;11.17;10.37;;;24.60;99.10;;;;;;5111693;27;20485;-56
2021/06/21 05:00:16;;;;;;;11.77;10.80;;;24.70;98.90;;;;;;5116795;28;20417;-55
2021/06/21 05:02:44;;;;;;;11.13;10.20;;;24.60;99.20;;;;;;5107469;28;20435;-52
2021/06/21 05:05:12;;;;;;;12.17;10.83;;;24.50;99.30;;;;;;5110597;28;20441;-53
2021/06/21 05:07:40;;;;;;;11.03;10.23;;;24.30;99.70;;;;;;5116346;28;20468;-53
2021/06/21 05:10:10;;;;;;;11.60;10.60;;;24.30;99.90;;;;;;5112578;28;20416;-53
2021/06/21 05:12:37;;;;;;;11.60;10.80;;;24.40;99.90;;;;;;5102568;28;20818;-55
2021/06/21 05:15:05;;;;;;;11.10;10.30;;;24.80;99.30;;;;;;5116981;28;20802;-55
2021/06/21 05:17:33;;;;;;;10.80;10.07;;;24.60;99.70;;;;;;5112996;28;20507;-53
2021/06/21 05:20:05;;;;;;;11.60;10.70;;;24.70;99.90;;;;;;5107628;28;20420;-56
2021/06/21 05:22:32;;;;;;;12.50;11.50;;;24.90;99.40;;;;;;5114780;28;20477;-54
2021/06/21 05:25:00;;;;;;;12.03;10.90;;;25.30;98.90;;;;;;5097224;28;20741;-54
2021/06/21 05:27:29;;;;;;;12.37;11.10;;;25.60;98.40;;;;;;5117524;27;20488;-54
2021/06/21 05:30:00;;;;;;;12.50;11.50;;;26.00;97.90;;;;;;5115792;28;20419;-54
2021/06/21 05:32:27;;;;;;;12.03;11.17;;;26.10;97.20;;;;;;5116771;28;20446;-55
2021/06/21 05:34:54;;;;;;;12.40;11.20;;;26.20;97.20;;;;;;5115357;28;20703;-51
2021/06/21 05:37:22;;;;;;;13.87;12.57;;;26.10;97.30;;;;;;5117397;28;20446;-54
2021/06/21 05:39:48;;;;;;;12.77;11.70;;;26.00;97.60;;;;;;5112094;28;20480;-56
2021/06/21 05:42:17;;;;;;;12.17;11.13;;;25.80;97.90;;;;;;5100082;28;20445;-53
2021/06/21 05:44:46;;;;;;;12.23;11.20;;;25.90;97.70;;;;;;5100027;28;20447;-53
2021/06/21 05:47:14;;;;;;;13.03;12.03;;;26.10;97.50;;;;;;5111508;28;20519;-55
2021/06/21 05:49:42;;;;;;;11.80;10.80;;;26.20;97.00;;;;;;5105688;28;20438;-54
2021/06/21 05:52:09;;;;;;;11.13;10.37;;;26.30;97.10;;;;;;5111532;28;20443;-52
2021/06/21 05:54:36;;;;;;;12.43;11.33;;;26.40;96.90;;;;;;5116080;28;20486;-57
2021/06/21 05:57:04;;;;;;;11.97;11.17;;;26.50;96.80;;;;;;5109748;28;20446;-58
2021/06/21 05:59:31;;;;;;;13.33;12.43;;;26.60;96.60;;;;;;5100654;28;20465;-56
2021/06/21 06:01:58;;;;;;;11.77;10.70;;;26.30;97.00;;;;;;5116607;28;20460;-54
2021/06/21 06:04:27;;;;;;;14.90;12.83;;;26.50;96.80;;;;;;5115356;28;20466;-56
2021/06/21 06:06:57;;;;;;;11.67;10.77;;;26.80;96.20;;;;;;5116209;28;20479;-55
2021/06/21 06:09:29;;;;;;;13.30;12.20;;;27.10;95.80;;;;;;5112481;28;20450;-54
2021/06/21 06:12:02;;;;;;;11.90;11.00;;;27.70;95.50;;;;;;5117078;28;20468;-55
2021/06/21 06:14:32;;;;;;;13.90;12.77;;;28.40;94.70;;;;;;5118587;28;20501;-54
2021/06/21 06:16:59;;;;;;;13.07;12.07;;;29.10;93.20;;;;;;5118463;28;20445;-56
2021/06/21 06:19:27;;;;;;;13.10;12.00;;;29.50;91.80;;;;;;5117640;28;20462;-56
2021/06/21 06:21:55;;;;;;;11.67;10.97;;;29.60;91.80;;;;;;5118479;28;20477;-54
2021/06/21 06:24:25;;;;;;;13.20;12.40;;;30.00;90.70;;;;;;5117513;28;20444;-55
2021/06/21 06:26:52;;;;;;;13.43;12.17;;;30.10;90.60;;;;;;5114770;27;20482;-53
2021/06/21 06:29:20;;;;;;;14.57;13.57;;;31.10;87.90;;;;;;5120683;28;20484;-55
2021/06/21 06:31:48;;;;;;;14.73;13.47;;;32.20;84.00;;;;;;5103595;28;20783;-54
2021/06/21 06:34:19;;;;;;;13.93;13.13;;;32.40;84.20;;;;;;5112966;28;20518;-55
2021/06/21 06:36:47;;;;;;;13.03;12.17;;;32.40;83.60;;;;;;5116558;28;20469;-54
2021/06/21 06:39:15;;;;;;;13.03;12.13;;;32.40;82.30;;;;;;5117554;28;20446;-56
2021/06/21 06:41:43;;;;;;;15.03;13.80;;;32.20;83.30;;;;;;5107443;28;20456;-52
2021/06/21 06:44:10;;;;;;;12.07;11.37;;;32.10;83.50;;;;;;5118374;28;20522;-57
2021/06/21 06:46:38;;;;;;;13.90;12.73;;;32.00;83.10;;;;;;5120751;28;20543;-54
2021/06/21 06:49:05;;;;;;;13.10;11.90;;;32.40;82.00;;;;;;5109310;28;20793;-57
2021/06/21 06:51:41;;;;;;;12.70;12.00;;;33.30;79.40;;;;;;5117564;28;20438;-57
2021/06/21 06:57:00;;;;;;;12.43;11.63;;;34.60;74.20;;;;;;5120852;28;20442;-59
2021/06/21 06:59:36;;;;;;;13.70;12.70;;;34.10;75.60;;;;;;5114510;28;20684;-55
2021/06/21 07:02:08;;;;;;;12.70;11.90;;;34.40;74.00;;;;;;5106758;28;20662;-55
2021/06/21 07:04:36;;;;;;;12.70;11.90;;;35.10;71.90;;;;;;5113367;28;20445;-57
2021/06/21 07:07:06;;;;;;;16.00;14.90;;;37.10;66.40;;;;;;5115326;28;20516;-55
2021/06/21 07:09:34;;;;;;;13.17;12.27;;;38.00;62.50;;;;;;5115401;28;20632;-55
2021/06/21 07:12:03;;;;;;;13.43;12.63;;;39.50;57.60;;;;;;5118769;28;20446;-55
2021/06/21 07:14:30;;;;;;;13.70;12.87;;;38.80;58.30;;;;;;5116501;28;20445;-58
2021/06/21 07:16:57;;;;;;;14.47;13.27;;;38.50;57.00;;;;;;5121258;28;20537;-58
2021/06/21 07:19:24;;;;;;;14.07;13.17;;;38.00;58.30;;;;;;5117765;28;20462;-55
2021/06/21 07:21:52;;;;;;;12.70;11.90;;;37.80;58.10;;;;;;5101910;28;20490;-57
2021/06/21 07:24:20;;;;;;;13.20;12.20;;;38.70;56.40;;;;;;5107309;28;20438;-56
2021/06/21 07:26:49;;;;;;;13.50;12.73;;;39.60;53.90;;;;;;5116354;27;20481;-55
2021/06/21 07:29:17;;;;;;;13.40;12.50;;;40.20;51.30;;;;;;5123681;27;20450;-53
2021/06/21 07:31:44;;;;;;;14.17;12.90;;;40.90;50.90;;;;;;5110746;28;20650;-57
2021/06/21 07:34:11;;;;;;;12.90;12.20;;;41.50;49.50;;;;;;5112762;27;20521;-55
2021/06/21 07:36:39;;;;;;;13.47;12.43;;;41.30;49.90;;;;;;5103132;28;20447;-56
2021/06/21 07:39:07;;;;;;;12.80;12.17;;;42.60;47.40;;;;;;5105116;28;20758;-58
2021/06/21 07:41:35;;;;;;;14.80;13.80;;;41.70;48.00;;;;;;5112728;28;20648;-55
2021/06/21 07:44:02;;;;;;;13.60;12.60;;;39.50;50.50;;;;;;5112507;27;20443;-55
2021/06/21 07:46:31;;;;;;;13.23;12.40;;;41.00;48.70;;;;;;5108925;28;20473;-55
2021/06/21 07:48:59;;;;;;;12.97;12.30;;;41.00;48.60;;;;;;5100058;28;20470;-56
2021/06/21 07:51:27;;;;;;;13.50;12.70;;;41.10;47.50;;;;;;5112613;28;20485;-57
2021/06/21 07:53:54;;;;;;;14.13;13.37;;;41.80;46.80;;;;;;5113087;28;20608;-57
2021/06/21 07:56:22;;;;;;;14.33;13.63;;;42.30;46.00;;;;;;5108733;28;20439;-56
2021/06/21 07:58:50;;;;;;;13.73;13.10;;;42.50;45.20;;;;;;5119862;28;20438;-57
2021/06/21 08:01:17;;;;;;;14.67;13.80;;;41.90;46.00;;;;;;5113440;28;20804;-56
2021/06/21 08:03:45;;;;;;;15.40;14.40;;;42.40;45.50;;;;;;5110881;28;20818;-57
2021/06/21 08:06:12;;;;;;;14.87;13.97;;;42.40;44.60;;;;;;5110902;28;20478;-58
2021/06/21 08:08:41;;;;;;;14.40;13.70;;;41.50;46.10;;;;;;5112888;28;20478;-58
2021/06/21 08:11:10;;;;;;;15.20;14.50;;;41.60;45.90;;;;;;5111778;28;20447;-58
2021/06/21 08:13:38;;;;;;;14.40;13.60;;;41.70;45.40;;;;;;5103379;28;20454;-54
2021/06/21 08:16:05;;;;;;;13.93;13.23;;;41.70;46.00;;;;;;5108307;28;20453;-54
2021/06/21 08:18:32;;;;;;;14.37;13.67;;;41.90;45.20;;;;;;5110222;28;20490;-58
2021/06/21 08:21:00;;;;;;;13.83;13.17;;;41.70;45.90;;;;;;5108691;28;20536;-57
2021/06/21 08:23:30;;;;;;;15.33;14.50;;;42.30;44.50;;;;;;5118291;28;20625;-55
2021/06/21 08:25:57;;;;;;;13.40;12.80;;;42.10;44.30;;;;;;5117333;28;20446;-55
2021/06/21 08:28:24;;;;;;;14.50;13.77;;;41.90;44.10;;;;;;5118507;28;20803;-56
2021/06/21 08:30:51;;;;;;;14.20;13.50;;;41.90;44.60;;;;;;5117837;28;20446;-56
2021/06/21 08:33:19;;;;;;;14.60;13.90;;;41.90;44.60;;;;;;5118346;27;20467;-56
2021/06/21 08:35:50;;;;;;;13.70;12.80;;;41.00;46.30;;;;;;5111540;28;20748;-59
2021/06/21 08:38:17;;;;;;;15.13;14.00;;;42.50;43.90;;;;;;5118378;28;20447;-56
2021/06/21 08:40:45;;;;;;;14.00;13.30;;;43.00;43.40;;;;;;5119031;28;20705;-57
2021/06/21 08:43:12;;;;;;;14.10;13.40;;;42.30;43.30;;;;;;5109862;28;20434;-55
2021/06/21 08:45:40;;;;;;;14.03;13.23;;;41.90;44.90;;;;;;5108265;28;20484;-56
2021/06/21 08:48:09;;;;;;;13.43;12.53;;;43.30;42.30;;;;;;5106626;28;20524;-56
2021/06/21 08:50:38;;;;;;;14.97;14.10;;;44.70;39.50;;;;;;5107974;28;20537;-55
2021/06/21 08:53:05;;;;;;;13.80;13.20;;;46.20;39.00;;;;;;5115465;28;20655;-57
2021/06/21 08:55:33;;;;;;;15.33;14.63;;;47.30;37.00;;;;;;5115713;28;20472;-57
2021/06/21 08:58:03;;;;;;;15.33;14.63;;;48.10;35.80;;;;;;5111891;28;20672;-58
2021/06/21 09:00:31;;;;;;;14.60;14.00;;;47.30;36.00;;;;;;5111970;28;20445;-58
2021/06/21 09:03:02;;;;;;;14.93;14.27;;;46.40;36.30;;;;;;5118439;28;20487;-58
2021/06/21 09:05:34;;;;;;;15.60;14.40;;;44.20;38.80;;;;;;5110308;28;20632;-58
2021/06/21 09:08:06;;;;;;;13.50;12.90;;;45.10;37.90;;;;;;5117396;28;20469;-56
2021/06/21 09:10:36;;;;;;;14.20;13.60;;;45.30;37.60;;;;;;5110365;28;20449;-57
2021/06/21 09:13:13;;;;;;;13.50;12.90;;;44.90;36.80;;;;;;5106836;28;20868;-57
2021/06/21 09:15:44;;;;;;;13.60;12.87;;;44.30;37.20;;;;;;5118076;28;20441;-58
2021/06/21 09:18:37;;;;;;;13.50;12.67;;;44.10;38.40;;;;;;5111501;28;20509;-57
2021/06/21 09:21:28;;;;;;;14.20;13.27;;;42.80;39.90;;;;;;5114315;28;20469;-59
2021/06/21 09:24:32;;;;;;;13.23;12.27;;;43.60;39.10;;;;;;5103273;28;20434;-59
2021/06/21 09:27:01;;;;;;;13.07;12.37;;;44.50;37.50;;;;;;5100680;28;20482;-57
2021/06/21 09:29:35;;;;;;;12.60;12.00;;;43.40;38.10;;;;;;5114664;28;20446;-58
2021/06/21 09:32:40;;;;;;;11.83;11.23;;;42.70;38.30;;;;;;5111922;28;20449;-56
2021/06/21 09:35:31;;;;;;;13.20;12.60;;;42.40;38.00;;;;;;5112381;28;20476;-56
2021/06/21 09:38:01;;;;;;;11.63;11.13;;;40.90;41.40;;;;;;5115464;28;20499;-57
2021/06/21 09:40:40;;;;;;;12.50;11.90;;;38.50;45.30;;;;;;5117908;28;20450;-58
2021/06/21 09:43:27;;;;;;;12.47;11.87;;;38.00;45.90;;;;;;5116063;28;20483;-58
2021/06/21 09:46:11;;;;;;;12.23;11.63;;;37.00;48.50;;;;;;5111476;28;20426;-58
2021/06/21 09:48:46;;;;;;;11.93;11.13;;;36.50;48.80;;;;;;5097492;28;20475;-58
2021/06/21 09:51:29;;;;;;;13.07;12.30;;;36.10;49.40;;;;;;5111132;28;20478;-56
2021/06/21 09:54:02;;;;;;;11.63;11.03;;;35.60;51.00;;;;;;5104581;28;20439;-59
2021/06/21 09:56:42;;;;;;;12.30;11.60;;;34.80;51.60;;;;;;5106997;28;20447;-56
2021/06/21 09:59:18;;;;;;;12.80;12.10;;;34.20;52.00;;;;;;5116571;28;20438;-56
2021/06/21 10:01:58;;;;;;;11.80;11.10;;;34.00;53.00;;;;;;5110640;28;20434;-58
2021/06/21 10:04:26;;;;;;;12.93;12.23;;;33.90;53.00;;;;;;5105958;28;20481;-57
2021/06/21 10:06:53;;;;;;;11.87;11.27;;;34.10;53.90;;;;;;5107861;28;20702;-57
2021/06/21 10:09:20;;;;;;;11.03;10.40;;;34.00;54.20;;;;;;5110142;28;20486;-58
2021/06/21 10:11:47;;;;;;;11.10;10.50;;;34.20;54.00;;;;;;5117154;28;20756;-59
2021/06/21 10:14:19;;;;;;;11.27;10.67;;;34.40;52.50;;;;;;5116429;28;20624;-58
2021/06/21 10:16:51;;;;;;;11.07;10.50;;;34.20;52.90;;;;;;5117035;28;20517;-55
2021/06/21 10:19:20;;;;;;;11.40;10.80;;;34.10;53.70;;;;;;5098479;28;20516;-57
2021/06/21 10:21:52;;;;;;;11.50;10.60;;;34.20;53.90;;;;;;5096085;28;20478;-55
2021/06/21 10:24:20;;;;;;;11.37;10.57;;;34.10;53.60;;;;;;5120548;28;20438;-56
2021/06/21 10:26:50;;;;;;;12.10;11.50;;;34.10;53.90;;;;;;5118144;28;20446;-57
2021/06/21 10:29:20;;;;;;;12.43;11.60;;;34.20;53.40;;;;;;5116238;28;20482;-58
2021/06/21 10:31:48;;;;;;;11.77;10.90;;;34.20;54.00;;;;;;5107474;28;20484;-58
2021/06/21 10:34:17;;;;;;;11.43;10.93;;;33.70;56.00;;;;;;5119199;28;20504;-57
2021/06/21 10:36:46;;;;;;;14.13;13.03;;;33.50;55.50;;;;;;5096718;28;20493;-55
2021/06/21 10:39:20;;;;;;;12.83;12.13;;;33.60;56.40;;;;;;5110578;28;20473;-57
2021/06/21 10:42:05;;;;;;;13.40;12.70;;;33.90;56.60;;;;;;5110262;28;20435;-56
2021/06/21 10:44:38;;;;;;;14.83;14.00;;;33.80;55.20;;;;;;5095419;28;20811;-57
2021/06/21 10:47:34;;;;;;;13.50;12.80;;;33.70;55.70;;;;;;5096995;28;20446;-57
2021/06/21 10:50:04;;;;;;;15.23;14.43;;;33.60;55.50;;;;;;5085771;28;20438;-57
2021/06/21 10:52:39;;;;;;;14.83;13.93;;;33.70;56.50;;;;;;5104797;28;20463;-56
2021/06/21 10:55:29;;;;;;;13.60;12.80;;;34.00;56.60;;;;;;5116108;28;20438;-58
2021/06/21 10:57:58;;;;;;;12.43;11.67;;;34.00;56.60;;;;;;5104312;28;20439;-58
2021/06/21 11:01:10;;;;;;;12.00;11.40;;;34.00;55.10;;;;;;5120959;28;20434;-57
2021/06/21 11:03:38;;;;;;;13.07;12.27;;;33.90;57.00;;;;;;5092464;28;20494;-57
2021/06/21 11:06:07;;;;;;;13.83;12.93;;;33.70;56.80;;;;;;5119600;28;20760;-57
2021/06/21 11:08:34;;;;;;;12.10;11.30;;;33.80;56.10;;;;;;5120344;28;20732;-57
2021/06/21 11:11:31;;;;;;;12.20;11.60;;;34.00;55.70;;;;;;5112731;28;20640;-56
2021/06/21 11:14:25;;;;;;;12.70;11.90;;;33.90;56.10;;;;;;5108717;28;20443;-57
2021/06/21 11:17:16;;;;;;;13.00;12.30;;;33.50;55.70;;;;;;5103200;28;20455;-59
2021/06/21 11:19:44;;;;;;;14.60;13.13;;;34.00;55.20;;;;;;5108897;28;20462;-57
2021/06/21 11:22:12;;;;;;;12.50;11.77;;;33.90;55.80;;;;;;5109193;28;20479;-59
2021/06/21 11:24:39;;;;;;;13.10;12.30;;;34.10;56.20;;;;;;5115870;28;20682;-57
2021/06/21 11:27:07;;;;;;;13.00;12.30;;;34.20;55.80;;;;;;5120705;28;20488;-57
2021/06/21 11:29:40;;;;;;;12.37;11.50;;;34.40;55.90;;;;;;5108306;28;20485;-57
2021/06/21 11:32:08;;;;;;;12.17;11.57;;;34.30;54.60;;;;;;5120066;28;20417;-56
2021/06/21 11:34:57;;;;;;;12.70;12.00;;;34.10;55.90;;;;;;5118828;28;20434;-56
2021/06/21 11:37:32;;;;;;;11.80;11.20;;;34.20;55.90;;;;;;5120104;28;20467;-57
2021/06/21 11:40:26;;;;;;;13.17;12.37;;;34.30;56.20;;;;;;5116754;28;20457;-56
2021/06/21 11:42:57;;;;;;;12.07;11.40;;;34.20;55.20;;;;;;5119170;28;20434;-56
2021/06/21 11:45:52;;;;;;;12.47;11.73;;;34.00;55.60;;;;;;5118951;28;20518;-57
2021/06/21 11:48:29;;;;;;;13.03;12.13;;;34.10;55.30;;;;;;5114648;28;20871;-57
2021/06/21 11:51:02;;;;;;;12.23;11.53;;;34.20;54.50;;;;;;5110934;28;20602;-57
2021/06/21 11:53:29;;;;;;;12.80;12.00;;;34.10;54.90;;;;;;5112337;28;20831;-57
2021/06/21 11:55:57;;;;;;;12.90;12.20;;;34.00;55.30;;;;;;5110790;28;20412;-56
2021/06/21 11:58:30;;;;;;;11.83;11.13;;;34.20;55.50;;;;;;5118045;28;20453;-55
2021/06/21 12:00:59;;;;;;;12.27;11.47;;;34.30;55.90;;;;;;5112516;28;20628;-57
2021/06/21 12:03:32;;;;;;;12.90;12.03;;;34.40;55.10;;;;;;5119996;28;20449;-55
2021/06/21 12:06:01;;;;;;;12.80;12.00;;;34.10;56.10;;;;;;5116333;28;20445;-56
2021/06/21 12:08:34;;;;;;;12.90;12.20;;;34.00;56.50;;;;;;5115704;28;20674;-56
2021/06/21 12:11:22;;;;;;;12.57;11.87;;;34.10;56.80;;;;;;5120096;28;20449;-58
2021/06/21 12:14:03;;;;;;;13.10;12.20;;;34.40;55.40;;;;;;5118164;28;20479;-57
2021/06/21 12:16:34;;;;;;;12.93;12.23;;;34.30;55.20;;;;;;5117874;28;20446;-59
2021/06/21 12:19:03;;;;;;;12.80;11.90;;;34.40;55.30;;;;;;5118133;28;20472;-57
2021/06/21 12:21:57;;;;;;;12.40;11.60;;;34.10;55.40;;;;;;5119415;28;20442;-57
2021/06/21 12:24:26;;;;;;;12.40;11.70;;;34.00;55.30;;;;;;5112800;28;20451;-58
2021/06/21 12:26:57;;;;;;;11.57;10.97;;;34.20;54.90;;;;;;5109937;28;20448;-58
2021/06/21 12:29:33;;;;;;;11.80;11.20;;;34.10;55.60;;;;;;5118372;28;20477;-57
2021/06/21 12:32:01;;;;;;;11.50;10.80;;;33.80;56.10;;;;;;5106898;28;20447;-56
2021/06/21 12:34:52;;;;;;;13.10;12.30;;;33.50;56.90;;;;;;5123418;27;20442;-58
2021/06/21 12:37:39;;;;;;;12.77;11.97;;;33.40;57.70;;;;;;5106851;28;20564;-56
2021/06/21 12:40:22;;;;;;;12.73;12.07;;;33.40;57.20;;;;;;5098459;28;20516;-58
2021/06/21 12:42:49;;;;;;;11.83;11.13;;;33.50;57.20;;;;;;5097499;28;20649;-55
2021/06/21 12:45:19;;;;;;;12.10;11.43;;;33.60;57.20;;;;;;5105573;28;20488;-55
2021/06/21 12:47:54;;;;;;;12.07;11.37;;;33.80;56.80;;;;;;5117165;28;20445;-58
2021/06/21 12:50:23;;;;;;;12.50;11.67;;;33.90;57.40;;;;;;5105158;28;20690;-55
2021/06/21 12:52:53;;;;;;;12.57;11.97;;;34.00;56.30;;;;;;5111886;28;20568;-56
2021/06/21 12:55:26;;;;;;;12.00;11.37;;;34.00;57.10;;;;;;5118085;28;20464;-57